Time;durP1;ratioP1;P1;durP2;ratioP2;P2;SDS_P1;SDS_P2;PMS_P1;PMS_P2;Temp;Humidity;BMP_temperature;BMP_pressure;BME280_temperature;BME280_humidity;BME280_pressure;Samples;Min_cycle;Max_cycle;Signal;HPM_P1;HPM_P2
2023/02/22 00:00:51;;;;;;;120.97;34.83;;;;;;;6.84;100.00;101050.47;5032638;28;20045;-54
2023/02/22 00:03:24;;;;;;;113.07;35.17;;;;;;;6.85;100.00;101042.44;5033654;28;20054;-54
2023/02/22 00:05:54;;;;;;;117.65;33.85;;;;;;;6.84;100.00;101050.47;5033484;28;20053;-54
2023/02/22 00:08:22;;;;;;;117.22;33.75;;;;;;;6.75;100.00;101046.81;5032865;28;20087;-54
2023/02/22 00:10:50;;;;;;;119.38;35.20;;;;;;;6.78;100.00;101053.63;5033296;28;20107;-54
2023/02/22 00:13:18;;;;;;;119.70;36.25;;;;;;;6.72;100.00;101052.31;5033322;28;20049;-54
2023/02/22 00:15:45;;;;;;;114.00;33.28;;;;;;;6.70;100.00;101048.97;5033280;28;20065;-55
2023/02/22 00:18:14;;;;;;;104.78;34.33;;;;;;;6.65;100.00;101048.47;5033296;28;20095;-55
2023/02/22 00:20:41;;;;;;;100.72;30.73;;;;;;;6.56;100.00;101039.50;5033351;28;20057;-55
2023/02/22 00:23:13;;;;;;;115.28;31.67;;;;;;;6.31;100.00;101043.19;5033264;28;20418;-55
2023/02/22 00:25:40;;;;;;;112.85;33.03;;;;;;;6.33;100.00;101044.78;5033037;28;20065;-54
2023/02/22 00:28:06;;;;;;;116.95;31.00;;;;;;;6.25;100.00;101039.25;5033254;28;20077;-55
2023/02/22 00:30:33;;;;;;;317.20;33.17;;;;;;;6.25;100.00;101043.69;5033113;28;20510;-54
2023/02/22 00:33:00;;;;;;;168.32;31.05;;;;;;;6.24;100.00;101034.09;5033233;28;20049;-55
2023/02/22 00:35:29;;;;;;;155.88;29.10;;;;;;;6.06;100.00;101031.09;5032852;28;20049;-55
2023/02/22 00:37:59;;;;;;;100.68;28.95;;;;;;;5.89;100.00;101025.25;5033026;28;20042;-54
2023/02/22 00:40:30;;;;;;;197.00;30.23;;;;;;;5.67;100.00;101023.41;5029883;28;20052;-54
2023/02/22 00:42:57;;;;;;;268.77;31.33;;;;;;;5.70;100.00;101028.47;5053026;28;20098;-55
2023/02/22 00:45:26;;;;;;;248.02;28.65;;;;;;;5.83;100.00;101027.53;5052745;28;20060;-55
2023/02/22 00:47:55;;;;;;;234.60;32.05;;;;;;;5.49;100.00;101020.38;5053906;28;20045;-55
2023/02/22 00:50:25;;;;;;;201.82;29.10;;;;;;;5.47;100.00;101022.28;5056826;28;20067;-56
2023/02/22 00:52:53;;;;;;;233.35;29.42;;;;;;;5.55;100.00;101025.19;5057184;28;20094;-55
2023/02/22 00:55:25;;;;;;;149.77;29.10;;;;;;;5.61;100.00;101016.00;5056822;28;20049;-56
2023/02/22 00:57:52;;;;;;;;;;;;;;;5.63;100.00;101014.09;5057155;28;20098;-56
2023/02/22 01:00:39;;;;;;;159.98;24.38;;;;;;;5.67;100.00;101015.53;5056040;28;19920;-54
2023/02/22 01:03:07;;;;;;;129.13;26.67;;;;;;;5.64;100.00;101018.41;5038075;28;20561;-54
2023/02/22 01:05:34;;;;;;;153.27;26.80;;;;;;;5.56;100.00;101012.88;5036827;28;20088;-55
2023/02/22 01:08:01;;;;;;;206.82;25.48;;;;;;;5.54;100.00;101010.34;5036628;28;20048;-54
2023/02/22 01:10:30;;;;;;;128.30;27.10;;;;;;;5.42;100.00;100995.50;5036563;28;20054;-53
2023/02/22 01:12:59;;;;;;;110.78;26.70;;;;;;;5.56;100.00;100997.91;5036262;28;20041;-54
2023/02/22 01:15:29;;;;;;;139.68;28.42;;;;;;;5.64;100.00;100991.22;5036682;28;20053;-54
2023/02/22 01:17:58;;;;;;;120.25;26.33;;;;;;;5.62;100.00;100994.00;5036403;28;20052;-54
2023/02/22 01:20:26;;;;;;;197.85;26.55;;;;;;;5.54;100.00;100989.28;5036448;28;20049;-55
2023/02/22 01:22:55;;;;;;;185.88;25.90;;;;;;;5.62;100.00;100987.88;5036415;28;20402;-55
2023/02/22 01:25:25;;;;;;;235.30;27.20;;;;;;;5.61;100.00;100987.03;5036224;28;20049;-55
2023/02/22 01:27:54;;;;;;;259.30;31.08;;;;;;;5.52;100.00;100985.94;5036315;28;20055;-55
2023/02/22 01:30:23;;;;;;;329.42;26.83;;;;;;;5.45;100.00;100991.78;5036342;28;20053;-55
2023/02/22 01:32:50;;;;;;;178.07;24.13;;;;;;;5.12;100.00;100983.63;5034755;28;20486;-55
2023/02/22 01:35:28;;;;;;;213.65;22.58;;;;;;;4.97;100.00;100982.97;5036053;28;20128;-54
2023/02/22 01:37:56;;;;;;;215.55;23.85;;;;;;;5.05;100.00;100971.88;5036218;28;20050;-55
2023/02/22 01:40:31;;;;;;;201.00;24.58;;;;;;;5.22;100.00;100977.69;5035733;28;20045;-55
2023/02/22 01:43:02;;;;;;;374.88;26.10;;;;;;;5.27;100.00;100976.41;5036197;28;20038;-55
2023/02/22 01:48:27;;;;;;;166.70;24.90;;;;;;;5.36;100.00;100964.34;5070784;28;20899;-54
2023/02/22 01:51:02;;;;;;;248.23;21.73;;;;;;;5.24;100.00;100962.63;5070370;28;20040;-54
2023/02/22 01:53:35;;;;;;;228.48;24.63;;;;;;;5.29;100.00;100963.13;5070690;28;20390;-53
2023/02/22 01:56:03;;;;;;;220.90;23.10;;;;;;;5.34;100.00;100959.22;5070451;28;20045;-54
2023/02/22 01:58:33;;;;;;;190.65;22.70;;;;;;;5.42;100.00;100961.28;5070174;28;20045;-53
2023/02/22 02:01:00;;;;;;;173.35;21.60;;;;;;;5.45;100.00;100960.22;5069491;28;20040;-54
2023/02/22 02:03:32;;;;;;;134.10;21.73;;;;;;;5.38;100.00;100960.69;5070052;28;20063;-54
2023/02/22 02:06:01;;;;;;;231.05;24.77;;;;;;;5.54;100.00;100960.34;5070018;28;20048;-54
2023/02/22 02:08:37;;;;;;;268.35;24.02;;;;;;;5.59;100.00;100957.38;5070389;28;20445;-54
2023/02/22 02:11:07;;;;;;;206.60;21.88;;;;;;;5.63;100.00;100952.72;5068863;28;20040;-54
2023/02/22 02:13:35;;;;;;;145.57;21.52;;;;;;;5.66;100.00;100939.34;5069941;28;20347;-53
2023/02/22 02:16:02;;;;;;;155.00;21.17;;;;;;;5.71;100.00;100942.44;5070038;28;20121;-54
2023/02/22 02:18:31;;;;;;;117.45;21.92;;;;;;;5.62;100.00;100943.13;5069626;28;20041;-54
2023/02/22 02:21:38;;;;;;;163.27;22.75;;;;;;;5.62;100.00;100940.50;5069936;28;20053;-53
2023/02/22 02:24:29;;;;;;;162.10;22.95;;;;;;;5.62;100.00;100940.50;5069881;28;20131;-54
2023/02/22 02:27:15;;;;;;;156.13;22.45;;;;;;;5.52;100.00;100940.38;5069514;28;20037;-54
2023/02/22 02:30:21;;;;;;;113.63;21.80;;;;;;;5.47;100.00;100937.25;5069693;28;20045;-54
2023/02/22 02:32:54;;;;;;;90.07;22.58;;;;;;;5.57;100.00;100939.06;5069052;28;20044;-54
2023/02/22 02:36:01;;;;;;;185.90;23.67;;;;;;;5.66;100.00;100932.25;5069870;28;20058;-54
2023/02/22 02:38:43;;;;;;;95.07;21.58;;;;;;;5.65;100.00;100933.22;5069119;28;20055;-54
2023/02/22 02:41:20;;;;;;;112.85;23.05;;;;;;;5.74;100.00;100929.88;5049352;28;20064;-54
2023/02/22 02:43:58;;;;;;;106.55;22.75;;;;;;;5.76;100.00;100929.75;5069295;28;20051;-54
2023/02/22 02:46:44;;;;;;;114.07;24.27;;;;;;;5.72;100.00;100928.31;5067770;28;20475;-54
2023/02/22 02:49:18;;;;;;;117.90;23.38;;;;;;;5.74;100.00;100927.22;5068080;28;20076;-54
2023/02/22 02:51:49;;;;;;;99.07;22.80;;;;;;;5.73;100.00;100922.94;5069453;28;20060;-54
2023/02/22 02:54:18;;;;;;;147.98;23.45;;;;;;;5.70;100.00;100920.53;5069511;28;20380;-54
2023/02/22 02:56:45;;;;;;;104.72;23.27;;;;;;;5.67;100.00;100915.50;5069100;28;20045;-53
2023/02/22 02:59:32;;;;;;;111.00;23.33;;;;;;;5.69;100.00;100913.59;5057285;28;20505;-53
2023/02/22 03:02:29;;;;;;;113.78;22.98;;;;;;;5.81;100.00;100913.63;5054935;28;20037;-54
2023/02/22 03:05:33;;;;;;;118.55;23.75;;;;;;;5.81;100.00;100906.53;5055696;28;20075;-54
2023/02/22 03:08:17;;;;;;;163.13;23.02;;;;;;;5.71;100.00;100914.34;5055446;28;20033;-54
2023/02/22 03:10:57;;;;;;;163.82;23.92;;;;;;;5.86;100.00;100909.66;5055725;28;20045;-54
2023/02/22 03:13:48;;;;;;;162.25;24.20;;;;;;;5.83;100.00;100902.00;5055729;28;20049;-54
2023/02/22 03:16:26;;;;;;;102.72;22.23;;;;;;;5.91;100.00;100902.25;5055571;28;20053;-54
2023/02/22 03:19:16;;;;;;;105.63;24.00;;;;;;;5.91;100.00;100902.25;5055538;28;20048;-53
2023/02/22 03:21:58;;;;;;;145.50;23.75;;;;;;;5.84;100.00;100895.78;5055864;28;20067;-54
2023/02/22 03:24:57;;;;;;;103.68;23.65;;;;;;;5.85;100.00;100899.25;5054546;28;20124;-54
2023/02/22 03:27:34;;;;;;;123.78;23.60;;;;;;;5.86;100.00;100899.13;5055207;28;20048;-54
2023/02/22 03:30:09;;;;;;;129.80;24.42;;;;;;;5.70;100.00;100904.75;5053998;28;20063;-54
2023/02/22 03:32:40;;;;;;;152.65;23.00;;;;;;;5.69;100.00;100905.69;5055427;28;20502;-54
2023/02/22 03:35:11;;;;;;;96.53;23.23;;;;;;;5.71;100.00;100897.69;5055431;28;20057;-54
2023/02/22 03:37:42;;;;;;;117.13;22.85;;;;;;;5.67;100.00;100896.25;5055058;28;20048;-54
2023/02/22 03:40:24;;;;;;;117.83;23.33;;;;;;;5.56;100.00;100902.34;5055044;28;20044;-54
2023/02/22 03:42:58;;;;;;;136.70;25.77;;;;;;;5.59;100.00;100904.75;5055332;28;20522;-54
2023/02/22 03:45:29;;;;;;;128.60;25.00;;;;;;;5.54;100.00;100906.88;5055065;28;20045;-54
2023/02/22 03:48:03;;;;;;;128.57;25.92;;;;;;;5.63;100.00;100897.44;5054633;28;20517;-54
2023/02/22 03:50:34;;;;;;;129.55;24.65;;;;;;;5.66;100.00;100907.75;5055204;28;20053;-54
2023/02/22 03:53:02;;;;;;;123.53;27.98;;;;;;;5.65;100.00;100904.25;5054922;28;20037;-54
2023/02/22 03:55:32;;;;;;;156.85;27.55;;;;;;;5.60;100.00;100898.50;5055086;28;20509;-54
2023/02/22 03:58:04;;;;;;;128.20;29.65;;;;;;;5.67;100.00;100896.25;5054581;28;20041;-54
2023/02/22 04:00:33;;;;;;;131.88;27.92;;;;;;;5.72;100.00;100892.28;5052636;28;20434;-54
2023/02/22 04:03:01;;;;;;;109.22;27.45;;;;;;;5.67;100.00;100899.72;5054385;28;20045;-54
2023/02/22 04:05:27;;;;;;;110.63;26.73;;;;;;;5.70;100.00;100902.13;5054926;28;20436;-54
2023/02/22 04:07:56;;;;;;;112.53;27.48;;;;;;;5.68;100.00;100908.47;5054602;28;20092;-54
2023/02/22 04:10:24;;;;;;;120.05;28.77;;;;;;;5.67;100.00;100904.97;5053729;28;20052;-54
2023/02/22 04:12:50;;;;;;;99.15;26.25;;;;;;;5.56;100.00;100910.22;5054248;28;20140;-54
2023/02/22 04:15:21;;;;;;;122.00;25.75;;;;;;;5.54;100.00;100906.88;5054683;28;20628;-54
2023/02/22 04:17:51;;;;;;;181.85;26.77;;;;;;;5.17;100.00;100905.25;5053159;28;20099;-54
2023/02/22 04:20:18;;;;;;;112.40;26.63;;;;;;;5.19;100.00;100899.88;5054705;28;20446;-54
2023/02/22 04:22:52;;;;;;;123.70;28.25;;;;;;;5.22;100.00;100899.66;5054399;28;20095;-53
2023/02/22 04:25:21;;;;;;;158.07;29.35;;;;;;;5.27;100.00;100899.28;5054398;28;20577;-54
2023/02/22 04:27:48;;;;;;;113.65;28.73;;;;;;;5.33;100.00;100893.56;5053896;28;20441;-54
2023/02/22 04:30:19;;;;;;;101.13;29.10;;;;;;;5.40;100.00;100889.50;5054616;28;20143;-54
2023/02/22 04:32:47;;;;;;;126.10;30.02;;;;;;;5.42;100.00;100885.00;5053981;28;20468;-54
2023/02/22 04:35:16;;;;;;;115.22;29.52;;;;;;;5.44;100.00;100882.22;5054120;28;20429;-54
2023/02/22 04:37:43;;;;;;;124.63;30.45;;;;;;;5.50;100.00;100877.31;5054157;28;20094;-53
2023/02/22 04:40:10;;;;;;;108.00;29.83;;;;;;;5.53;100.00;100874.47;5054127;28;20045;-54
2023/02/22 04:42:38;;;;;;;127.20;32.50;;;;;;;5.47;100.00;100876.72;5049821;28;20494;-54
2023/02/22 04:45:07;;;;;;;130.00;32.30;;;;;;;5.37;100.00;100874.81;5053497;28;20049;-54
2023/02/22 04:47:36;;;;;;;119.43;32.47;;;;;;;5.30;100.00;100870.97;5053410;28;20041;-55
2023/02/22 04:50:05;;;;;;;119.32;32.15;;;;;;;5.36;100.00;100877.53;5054089;28;20049;-54
2023/02/22 04:52:32;;;;;;;135.10;31.10;;;;;;;5.34;100.00;100875.03;5053699;28;20048;-54
2023/02/22 04:54:59;;;;;;;120.53;30.70;;;;;;;5.29;100.00;100869.28;5053602;28;20044;-54
2023/02/22 04:57:27;;;;;;;162.50;32.45;;;;;;;5.38;100.00;100865.97;5053710;28;20049;-54
2023/02/22 04:59:54;;;;;;;105.07;29.65;;;;;;;5.35;100.00;100865.38;5053290;28;20056;-55
2023/02/22 05:02:22;;;;;;;122.55;32.63;;;;;;;5.39;100.00;100865.00;5053196;28;20099;-53
2023/02/22 05:04:49;;;;;;;130.07;32.72;;;;;;;5.44;100.00;100862.03;5053517;28;20041;-54
2023/02/22 05:07:16;;;;;;;111.30;32.50;;;;;;;5.51;100.00;100851.84;5053181;28;20398;-55
2023/02/22 05:09:43;;;;;;;129.02;31.75;;;;;;;5.41;100.00;100837.75;5053424;28;20059;-54
2023/02/22 05:12:09;;;;;;;114.80;32.85;;;;;;;5.30;100.00;100842.03;5053284;28;20045;-55
2023/02/22 05:14:36;;;;;;;158.73;34.85;;;;;;;5.52;100.00;100841.19;5053395;28;20053;-54
2023/02/22 05:17:03;;;;;;;118.72;32.25;;;;;;;5.45;100.00;100833.91;5053102;28;20086;-54
2023/02/22 05:19:30;;;;;;;104.35;32.05;;;;;;;5.51;100.00;100836.06;5053286;28;20106;-54
2023/02/22 05:21:57;;;;;;;110.22;32.97;;;;;;;5.45;100.00;100832.09;5053187;28;20048;-55
2023/02/22 05:24:23;;;;;;;102.97;31.95;;;;;;;5.52;100.00;100835.94;5052430;28;20045;-55
2023/02/22 05:26:50;;;;;;;94.88;30.30;;;;;;;5.53;100.00;100840.25;5052934;28;20049;-55
2023/02/22 05:29:17;;;;;;;114.35;30.05;;;;;;;5.48;100.00;100834.50;5053242;28;20045;-53
2023/02/22 05:31:43;;;;;;;85.28;30.65;;;;;;;5.53;100.00;100828.88;5051626;28;20498;-54
2023/02/22 05:34:10;;;;;;;82.63;28.85;;;;;;;5.56;100.00;100828.66;5053275;28;20057;-55
2023/02/22 05:36:37;;;;;;;77.47;28.92;;;;;;;5.55;100.00;100819.91;5053082;28;20044;-54
2023/02/22 05:39:04;;;;;;;63.95;27.05;;;;;;;5.57;100.00;100823.28;5052863;28;20118;-54
2023/02/22 05:41:31;;;;;;;63.88;25.77;;;;;;;5.47;100.00;100824.94;5051488;28;20552;-55
2023/02/22 05:43:57;;;;;;;58.17;25.10;;;;;;;5.51;100.00;100829.03;5053255;28;20559;-54
2023/02/22 05:46:24;;;;;;;59.03;25.40;;;;;;;5.52;100.00;100835.94;5051313;28;20659;-55
2023/02/22 05:48:51;;;;;;;57.00;25.27;;;;;;;5.47;100.00;100824.94;5053108;28;20045;-55
2023/02/22 05:51:18;;;;;;;61.53;24.85;;;;;;;5.48;100.00;100823.16;5052804;28;20476;-55
2023/02/22 05:53:45;;;;;;;52.35;23.52;;;;;;;5.36;100.00;100823.13;5053320;28;20045;-55
2023/02/22 05:56:11;;;;;;;50.80;22.38;;;;;;;5.35;100.00;100818.84;5052917;28;20055;-55
2023/02/22 05:58:39;;;;;;;56.10;24.38;;;;;;;5.33;100.00;100818.13;5052613;28;20029;-54
2023/02/22 06:01:05;;;;;;;55.20;24.00;;;;;;;5.37;100.00;100813.47;5052397;28;20056;-56
2023/02/22 06:03:32;;;;;;;53.47;23.52;;;;;;;5.34;100.00;100811.06;5051296;28;20498;-55
2023/02/22 06:05:59;;;;;;;58.15;25.45;;;;;;;5.32;100.00;100807.72;5053130;28;20041;-55
2023/02/22 06:08:25;;;;;;;60.25;25.98;;;;;;;5.41;100.00;100814.06;5052537;28;20079;-55
2023/02/22 06:10:53;;;;;;;69.00;25.15;;;;;;;5.35;100.00;100813.56;5052525;28;20128;-55
2023/02/22 06:13:19;;;;;;;62.88;25.77;;;;;;;5.39;100.00;100812.38;5052646;28;20052;-55
2023/02/22 06:15:46;;;;;;;68.05;26.88;;;;;;;5.35;100.00;100815.38;5053141;28;20053;-54
2023/02/22 06:18:13;;;;;;;70.60;28.20;;;;;;;5.45;100.00;100815.50;5051038;28;20040;-55
2023/02/22 06:20:40;;;;;;;66.03;26.33;;;;;;;5.46;100.00;100812.75;5052303;28;20449;-55
2023/02/22 06:23:07;;;;;;;71.45;28.67;;;;;;;5.51;100.00;100804.47;5051894;28;20060;-54
2023/02/22 06:25:34;;;;;;;66.88;27.38;;;;;;;5.56;100.00;100800.53;5050825;28;20352;-55
2023/02/22 06:28:01;;;;;;;68.78;27.67;;;;;;;5.46;100.00;100796.13;5052437;28;20084;-55
2023/02/22 06:30:29;;;;;;;65.93;26.75;;;;;;;5.56;100.00;100799.69;5052837;28;20495;-56
2023/02/22 06:32:56;;;;;;;75.88;27.95;;;;;;;5.57;100.00;100799.59;5052937;28;20069;-54
2023/02/22 06:35:23;;;;;;;69.38;27.63;;;;;;;5.50;100.00;100800.19;5056221;28;20104;-56
2023/02/22 06:37:50;;;;;;;63.42;27.13;;;;;;;5.52;100.00;100801.72;5056153;28;20486;-55
2023/02/22 06:40:16;;;;;;;63.85;26.00;;;;;;;5.53;100.00;100806.06;5056021;28;20090;-55
2023/02/22 06:42:46;;;;;;;67.35;26.25;;;;;;;5.35;100.00;100805.69;5059296;28;20470;-55
2023/02/22 06:45:12;;;;;;;67.18;25.63;;;;;;;5.42;100.00;100808.69;5075876;28;20098;-55
2023/02/22 06:47:40;;;;;;;56.50;24.73;;;;;;;5.35;100.00;100810.94;5075331;28;20056;-55
2023/02/22 06:50:17;;;;;;;62.47;23.90;;;;;;;5.34;100.00;100806.63;5075482;28;20041;-54
2023/02/22 06:52:43;;;;;;;62.65;24.58;;;;;;;5.41;100.00;100804.38;5075492;28;20433;-55
2023/02/22 06:55:16;;;;;;;49.35;22.75;;;;;;;5.44;100.00;100808.53;5075465;28;20052;-55
2023/02/22 06:57:43;;;;;;;56.30;24.70;;;;;;;5.37;100.00;100806.41;5075712;28;20120;-55
2023/02/22 07:00:11;;;;;;;51.20;22.65;;;;;;;5.46;100.00;100806.66;5075090;28;20053;-54
2023/02/22 07:02:37;;;;;;;57.85;24.48;;;;;;;5.41;100.00;100804.38;5060857;28;20384;-55
2023/02/22 07:05:05;;;;;;;54.85;23.13;;;;;;;5.27;100.00;100802.78;5055370;28;20406;-54
2023/02/22 07:07:32;;;;;;;47.65;22.80;;;;;;;5.46;100.00;100807.47;5026906;28;20460;-54
2023/02/22 07:09:59;;;;;;;45.90;21.17;;;;;;;5.42;100.00;100806.06;5033114;28;20052;-54
2023/02/22 07:12:25;;;;;;;46.30;21.05;;;;;;;5.34;100.00;100805.78;5055050;28;20048;-54
2023/02/22 07:14:55;;;;;;;50.58;21.98;;;;;;;5.26;100.00;100801.13;5055635;28;20045;-55
2023/02/22 07:17:21;;;;;;;44.35;20.48;;;;;;;5.33;100.00;100796.22;5055327;28;20136;-55
2023/02/22 07:19:48;;;;;;;47.00;20.63;;;;;;;5.42;100.00;100792.03;5055415;28;20045;-55
2023/02/22 07:22:16;;;;;;;47.85;21.00;;;;;;;5.42;100.00;100798.16;5055434;28;20071;-55
2023/02/22 07:24:43;;;;;;;43.72;21.58;;;;;;;5.45;100.00;100797.06;5054310;28;20384;-55
2023/02/22 07:27:10;;;;;;;48.22;20.92;;;;;;;5.29;100.00;100795.63;5055442;28;20044;-55
2023/02/22 07:29:36;;;;;;;46.80;21.30;;;;;;;5.43;100.00;100801.63;5055677;28;20045;-55
2023/02/22 07:32:03;;;;;;;55.00;21.88;;;;;;;5.47;100.00;100800.41;5055236;28;20049;-55
2023/02/22 07:34:30;;;;;;;48.75;21.15;;;;;;;5.41;100.00;100799.09;5055210;28;20041;-55
2023/02/22 07:36:56;;;;;;;53.17;24.30;;;;;;;5.40;100.00;100792.16;5053766;28;20056;-56
2023/02/22 07:39:23;;;;;;;54.80;25.27;;;;;;;5.32;100.00;100792.75;5054182;28;20107;-54
2023/02/22 07:41:49;;;;;;;63.95;28.65;;;;;;;5.27;100.00;100794.06;5054988;28;20049;-55
2023/02/22 07:44:21;;;;;;;63.42;31.52;;;;;;;5.43;100.00;100796.38;5059301;28;20044;-55
2023/02/22 07:46:49;;;;;;;63.13;32.40;;;;;;;5.59;100.00;100791.56;5054294;28;20100;-54
2023/02/22 07:49:16;;;;;;;63.72;34.35;;;;;;;5.47;100.00;100787.25;5041748;28;20124;-54
2023/02/22 07:51:43;;;;;;;70.80;35.63;;;;;;;5.61;100.00;100788.81;5021855;28;20040;-54
2023/02/22 07:54:09;;;;;;;67.22;35.80;;;;;;;5.69;100.00;100789.03;5050477;28;20043;-54
2023/02/22 07:56:36;;;;;;;74.57;35.92;;;;;;;5.79;100.00;100778.63;5054312;28;20049;-54
2023/02/22 07:59:03;;;;;;;89.13;37.97;;;;;;;5.86;100.00;100782.47;5039277;28;20049;-53
2023/02/22 08:01:30;;;;;;;72.90;35.28;;;;;;;5.92;100.00;100779.31;5065088;28;20048;-53
2023/02/22 08:03:58;;;;;;;67.85;34.00;;;;;;;5.75;100.00;100778.88;5051513;28;20048;-56
2023/02/22 08:06:24;;;;;;;65.70;33.60;;;;;;;5.80;100.00;100778.50;5059747;28;20037;-55
2023/02/22 08:08:51;;;;;;;63.47;31.30;;;;;;;6.04;100.00;100777.53;5025376;28;20044;-56
2023/02/22 08:11:18;;;;;;;66.88;31.23;;;;;;;6.16;100.00;100768.63;5043550;28;20079;-56
2023/02/22 08:13:45;;;;;;;66.20;30.67;;;;;;;6.26;100.00;100763.47;5028719;28;20509;-56
2023/02/22 08:16:11;;;;;;;61.60;30.60;;;;;;;6.37;100.00;100763.41;5036310;28;20052;-56
2023/02/22 08:18:39;;;;;;;63.92;30.92;;;;;;;6.38;100.00;100775.63;5011898;28;20167;-56
2023/02/22 08:21:06;;;;;;;58.53;29.27;;;;;;;6.51;100.00;100755.22;5053749;28;20135;-55
2023/02/22 08:23:33;;;;;;;58.00;29.00;;;;;;;6.62;100.00;100756.97;5028283;28;20127;-56
2023/02/22 08:26:14;;;;;;;58.25;28.08;;;;;;;6.69;100.00;100757.25;5050515;28;20744;-56
2023/02/22 08:28:42;;;;;;;56.97;29.42;;;;;;;6.89;100.00;100748.53;5022572;28;20498;-55
2023/02/22 08:31:09;;;;;;;59.63;29.38;;;;;;;6.98;100.00;100752.16;5049203;28;20111;-55
2023/02/22 08:33:36;;;;;;;61.10;28.50;;;;;;;7.15;100.00;100753.38;5012377;28;20996;-55
2023/02/22 08:36:03;;;;;;;58.63;29.50;;;;;;;7.26;100.00;100750.66;5032640;28;20049;-55
2023/02/22 08:38:32;;;;;;;56.88;28.67;;;;;;;7.41;100.00;100747.66;5036373;28;20056;-55
2023/02/22 08:40:59;;;;;;;49.80;26.65;;;;;;;7.40;100.00;100762.63;5035880;28;20079;-55
2023/02/22 08:43:27;;;;;;;51.00;26.15;;;;;;;7.48;100.00;100751.44;5013734;28;20060;-55
2023/02/22 08:45:54;;;;;;;51.83;26.73;;;;;;;7.50;99.53;100750.31;5044673;28;20037;-54
2023/02/22 08:48:23;;;;;;;48.97;24.73;;;;;;;7.56;99.31;100746.31;5024261;28;20041;-54
2023/02/22 08:50:49;;;;;;;48.78;23.75;;;;;;;7.65;99.52;100752.59;5042940;28;20045;-55
2023/02/22 08:53:17;;;;;;;49.70;24.75;;;;;;;7.59;99.55;100753.13;5012234;28;20054;-56
2023/02/22 08:55:44;;;;;;;53.08;24.60;;;;;;;7.72;99.91;100750.25;5044524;28;20048;-55
2023/02/22 08:58:11;;;;;;;48.25;23.65;;;;;;;7.69;98.84;100752.19;5024286;28;20060;-56
2023/02/22 09:00:39;;;;;;;54.45;23.80;;;;;;;7.92;99.10;100751.97;5032140;28;20043;-54
2023/02/22 09:03:09;;;;;;;51.22;25.17;;;;;;;7.82;98.10;100751.09;5052005;28;20045;-56
2023/02/22 09:05:36;;;;;;;47.92;25.00;;;;;;;7.95;98.17;100750.84;5050531;28;20037;-55
2023/02/22 09:08:03;;;;;;;48.03;24.15;;;;;;;8.12;98.04;100750.19;5039465;28;20045;-55
2023/02/22 09:10:32;;;;;;;49.75;24.38;;;;;;;8.07;97.14;100740.00;5042900;28;20045;-55
2023/02/22 09:12:59;;;;;;;52.20;24.48;;;;;;;8.08;96.87;100746.97;5031349;28;20049;-55
2023/02/22 09:15:27;;;;;;;56.00;25.98;;;;;;;8.16;96.19;100741.00;5038067;28;20139;-55
2023/02/22 09:17:54;;;;;;;54.90;27.27;;;;;;;8.06;95.69;100751.56;5040592;28;20087;-55
2023/02/22 09:20:23;;;;;;;59.72;26.10;;;;;;;8.19;94.42;100753.13;5049489;28;20067;-55
2023/02/22 09:22:51;;;;;;;54.78;25.63;;;;;;;8.20;95.03;100755.59;5053697;28;20044;-53
2023/02/22 09:25:22;;;;;;;53.47;26.65;;;;;;;8.20;95.36;100755.59;5041529;28;20049;-55
2023/02/22 09:27:51;;;;;;;56.75;27.67;;;;;;;8.30;95.11;100749.50;5035091;28;20045;-54
2023/02/22 09:30:30;;;;;;;51.50;27.15;;;;;;;8.39;94.72;100751.31;5037611;28;20048;-55
2023/02/22 09:33:03;;;;;;;59.30;26.75;;;;;;;8.41;93.74;100752.81;5049950;28;20095;-54
2023/02/22 09:35:30;;;;;;;53.58;26.17;;;;;;;8.63;94.44;100753.53;5050636;28;20478;-55
2023/02/22 09:38:23;;;;;;;53.05;25.77;;;;;;;8.84;93.67;100742.78;5045633;28;20044;-55
2023/02/22 09:41:02;;;;;;;46.90;24.15;;;;;;;8.94;90.97;100750.69;5041963;28;20044;-55
2023/02/22 09:43:39;;;;;;;49.65;24.65;;;;;;;9.01;91.35;100734.09;5042620;28;20049;-55
2023/02/22 09:46:36;;;;;;;49.15;23.48;;;;;;;8.90;90.45;100736.09;5044144;28;20073;-55
2023/02/22 09:49:30;;;;;;;49.42;22.75;;;;;;;9.11;89.70;100735.88;5043931;28;20041;-55
2023/02/22 09:52:03;;;;;;;47.08;21.95;;;;;;;9.22;89.10;100739.19;5048852;28;20048;-56
2023/02/22 09:54:42;;;;;;;44.55;21.10;;;;;;;9.39;87.49;100731.47;5038526;28;20051;-56
2023/02/22 09:57:16;;;;;;;45.17;22.42;;;;;;;9.42;86.98;100736.44;5043585;28;20053;-56
2023/02/22 09:59:59;;;;;;;46.28;23.17;;;;;;;9.49;87.51;100734.88;5043633;28;20529;-56
2023/02/22 10:02:33;;;;;;;46.90;23.52;;;;;;;9.55;87.65;100731.66;5019993;28;20418;-56
2023/02/22 10:05:12;;;;;;;43.40;22.60;;;;;;;9.79;86.19;100732.94;5054962;28;20068;-56
2023/02/22 10:07:46;;;;;;;42.28;22.63;;;;;;;9.89;85.70;100728.38;5034930;28;20494;-55
2023/02/22 10:10:17;;;;;;;43.97;21.40;;;;;;;9.96;85.20;100732.09;5035517;28;20475;-56
2023/02/22 10:13:24;;;;;;;46.95;22.70;;;;;;;10.18;83.61;100728.16;5049709;28;20049;-56
2023/02/22 10:16:19;;;;;;;45.20;22.17;;;;;;;10.16;83.51;100726.66;5035226;28;20057;-56
2023/02/22 10:19:26;;;;;;;44.17;22.48;;;;;;;10.31;82.43;100719.84;5044776;28;20049;-56
2023/02/22 10:22:25;;;;;;;42.90;20.83;;;;;;;10.36;81.14;100720.22;5041646;28;20515;-56
2023/02/22 10:27:38;;;;;;;48.05;20.95;;;;;;;10.65;80.87;100720.97;5104380;27;20721;-56
2023/02/22 10:30:27;;;;;;;42.00;21.17;;;;;;;10.65;80.43;100716.47;5065001;28;20137;-55
2023/02/22 10:33:07;;;;;;;42.97;20.42;;;;;;;10.79;80.39;100712.44;5088425;28;20062;-56
2023/02/22 10:35:36;;;;;;;42.80;21.45;;;;;;;10.91;78.54;100705.88;5061350;28;20122;-56
2023/02/22 10:38:15;;;;;;;42.45;21.65;;;;;;;11.09;79.39;100707.63;5094562;28;20509;-56
2023/02/22 10:40:48;;;;;;;44.22;21.38;;;;;;;11.22;78.42;100700.03;5077350;28;20059;-55
2023/02/22 10:43:15;;;;;;;38.30;20.40;;;;;;;11.41;77.63;100693.66;5073629;28;20044;-59
2023/02/22 10:45:41;;;;;;;41.42;20.05;;;;;;;11.43;76.12;100696.16;5078469;28;20079;-56
2023/02/22 10:48:14;;;;;;;45.42;19.42;;;;;;;11.67;74.42;100698.88;5079231;28;20032;-56
2023/02/22 10:50:42;;;;;;;40.63;20.88;;;;;;;11.95;73.93;100692.47;5078327;28;20037;-55
2023/02/22 10:53:09;;;;;;;42.17;19.63;;;;;;;12.20;71.60;100691.50;5057844;28;20501;-56
2023/02/22 10:56:16;;;;;;;40.92;20.60;;;;;;;12.35;70.99;100688.19;5054038;28;20089;-56
2023/02/22 11:01:36;;;;;;;38.08;19.73;;;;;;;12.64;71.00;100688.50;5071699;27;21796;-57
2023/02/22 11:04:17;;;;;;;36.20;18.67;;;;;;;13.00;69.79;100682.75;5099944;28;20141;-56
2023/02/22 11:06:48;;;;;;;38.00;18.10;;;;;;;13.26;66.98;100676.31;5090791;28;20126;-56
2023/02/22 11:09:22;;;;;;;40.78;18.83;;;;;;;13.65;65.48;100686.16;5058297;28;20052;-57
2023/02/22 11:12:07;;;;;;;38.10;18.08;;;;;;;14.07;62.74;100684.06;5085928;28;20124;-56
2023/02/22 11:14:34;;;;;;;42.30;19.02;;;;;;;14.38;61.05;100690.13;5095592;28;20414;-55
2023/02/22 11:17:06;;;;;;;43.10;17.85;;;;;;;14.67;59.41;100691.22;5089556;28;20052;-55
2023/02/22 11:19:35;;;;;;;45.20;19.13;;;;;;;14.83;59.19;100686.75;5093425;28;20123;-56
2023/02/22 11:22:36;;;;;;;37.65;17.65;;;;;;;15.70;56.30;100688.69;5093770;28;20464;-56
2023/02/22 11:25:06;;;;;;;37.33;17.60;;;;;;;17.13;53.00;100688.66;5086557;28;20028;-56
2023/02/22 11:27:40;;;;;;;33.00;16.73;;;;;;;17.99;49.79;100686.28;5088799;28;20330;-56
2023/02/22 11:30:30;;;;;;;36.20;17.83;;;;;;;18.73;46.97;100694.34;5094843;28;20031;-56
2023/02/22 11:33:22;;;;;;;34.85;18.13;;;;;;;18.16;48.10;100693.94;5086434;28;20032;-56
2023/02/22 11:35:58;;;;;;;39.92;19.27;;;;;;;18.41;47.29;100686.13;5069926;28;20409;-57